Δεν απαιτείται κάποια ιδιαίτερη επαγρύπνηση.    Δεν υπάρχουν προειδοποιήσεις επικίνδυνων καιρικών φαινομένων

Οι άλλοι ιστότοποί μου:

SYKIA HOMEWEATHERSTATIONsikeaweather.alinos.eu

SYKIA METEOTEMPLATEsykiameteo.alinos.eu

alinos.eualinos.eu



Αναφορές γειτονικών METAR

   
LGEL - Elefsis (hel-Afb, Greece
Απόσταση από τον σταθμό: Α 77 km
Ενημερώθηκε: 19-08-2018 12:20
Διάσπαρτα νέφη  
Διάσπαρτα νέφη  
   Ανεμος: Βόρια 27.8 km/h<br />Gust to 27.8 km/h
Ανεμος: Βόρια 27.8 km/h
Gust to 27.8 km/h
Θερμοκρασία: 33°C
Σημείο Δρόσου: 12°C
Υγρασία: 28%
Βαρόμετρο: 1010 hPa
Νεφώσεις: Διάσπαρτα νέφη
Ορατότητα: More than 10 km
Στοιχεία νεφών: Διάσπαρτα νέφη 2500 ft
LGEL 190920Z 36015G25KT 9999 FEW025 33/12 Q1010
LGRX - Araxos (civ/Afb), Greece
Απόσταση από τον σταθμό: Δ 110 km
Ενημερώθηκε: 19-08-2018 12:20
Διάσπαρτα νέφη  
Διάσπαρτα νέφη  
   Ανεμος: Βόρια 22.2 km/h
Ανεμος: Βόρια 22.2 km/h
Θερμοκρασία: 34°C
Σημείο Δρόσου: 13°C
Υγρασία: 28%
Βαρόμετρο: 1011 hPa
Νεφώσεις: Διάσπαρτα νέφη
Ορατότητα: More than 10 km
Στοιχεία νεφών: Διάσπαρτα νέφη 2500 ft
LGRX 190920Z 01012KT 9999 FEW025 34/13 Q1011
LGAV - Athens/Elef-Ven, Greece
Απόσταση από τον σταθμό: Α 113 km
Ενημερώθηκε: 19-08-2018 12:20
Αίθριος  
Αίθριος  
   Ανεμος: Βόρια 35.2 km/h<br />Gust to 35.2 km/h
Ανεμος: Βόρια 35.2 km/h
Gust to 35.2 km/h
Θερμοκρασία: 30°C
Δείκτης θερμότητας: 29°C
Σημείο Δρόσου: 15°C
Υγρασία: 40%
Βαρόμετρο: 1011 hPa
Ορατότητα: More than 10 km
Στοιχεία νεφών: Αίθριος
LGAV 190920Z 01019G29KT CAVOK 30/15 Q1011 NOSIG
LGAD - Andravida (civ/A, Greece
Απόσταση από τον σταθμό: Δ 124 km
Ενημερώθηκε: 19-08-2018 12:20
Αίθριος  
Αίθριος  
   Ανεμος: ΒΒΔ 14.8 km/h
Ανεμος: ΒΒΔ 14.8 km/h
Θερμοκρασία: 31°C
Δείκτης θερμότητας: 32°C
Σημείο Δρόσου: 18°C
Υγρασία: 46%
Βαρόμετρο: 1011 hPa
Ορατότητα: More than 10 km
Στοιχεία νεφών: Αίθριος
LGAD 190920Z 34008KT CAVOK 31/18 Q1011
LGKL - Kalamata (hel-Af, Greece
Απόσταση από τον σταθμό: ΝΝΔ 124 km
Ενημερώθηκε: 19-08-2018 12:20
Διάσπαρτα νέφη  
Διάσπαρτα νέφη  
   Ανεμος: ΒΔ 11.1 km/h
Ανεμος: ΒΔ 11.1 km/h
Θερμοκρασία: 34°C
Σημείο Δρόσου: 13°C
Υγρασία: 28%
Βαρόμετρο: 1010 hPa
Νεφώσεις: Διάσπαρτα νέφη
Ορατότητα: More than 10 km
Στοιχεία νεφών: Διάσπαρτα νέφη 3000 ft
LGKL 190920Z 31006KT 9999 FEW030 34/13 Q1010
LGBL - Nea Anchialos, Greece
Απόσταση από τον σταθμό: Β 129 km
Ενημερώθηκε: 19-08-2018 12:20
Αίθριος  
Αίθριος  
   Ανεμος: ΒΒΑ 13 km/h
Ανεμος: ΒΒΑ 13 km/h
Θερμοκρασία: 33°C
Σημείο Δρόσου: 11°C
Υγρασία: 26%
Βαρόμετρο: 1014 hPa
Ορατότητα: More than 10 km
Στοιχεία νεφών: Αίθριος
LGBL 190920Z 03007KT CAVOK 33/11 Q1014

Αρχική γραφή από  Saratoga-weather.org Προσαρμογή στον ιστότοπο από  Weerstation Leuven

Βλέπε επίσης τις ενημερώσεις τού σταθμού μας στα παρακάτω δίκτυα:

European Weather Network

Weather Underground

Citizen Weather Observer Program (CWOP)

HAMweather, WeatherForYou, PWS Weather

UK Metoffice

Equipment we use:

Μετεωρολογικός σταθμός
Davis Wireless Vantage Pro2

Davis Wireless Vantage Pro2